Terminal Aerodrome Forecast
Issued by NWS

Home | Current Version | Previous Version | Text Only | Print | Product List | Glossary On
Versions: 1 2 3 4 5 6 7 8 9 10 11 12 13 14 15 16 17 18 19 20
414
FTUS46 KPDT 182132 AAA
TAFDLS
TAF AMD
KDLS 182132Z 1822/1918 VRB03KT 3SM BR SCT020 BKN060
     FM190300 11004KT 5SM -FZRA BR BKN028 OVC050
     FM191500 VRB03KT 6SM BR BKN035 OVC080=

USA.gov is the U.S. government's official web portal to all federal, state and local government web resources and services.